createdAt,value
2023-03-03T00:00:28.889Z,0
2023-03-03T00:01:35.023Z,0
2023-03-03T00:03:47.351Z,0
2023-03-03T00:04:53.469Z,0
2023-03-03T00:05:59.605Z,0
2023-03-03T00:07:05.737Z,0
2023-03-03T00:08:11.876Z,0
2023-03-03T00:09:18.028Z,0
2023-03-03T00:11:30.361Z,0
2023-03-03T00:12:35.516Z,0
2023-03-03T00:13:41.620Z,0
2023-03-03T00:14:47.758Z,0
2023-03-03T00:15:53.933Z,0
2023-03-03T00:17:00.054Z,0
2023-03-03T00:18:06.194Z,0
2023-03-03T00:19:12.360Z,0
2023-03-03T00:20:18.481Z,0
2023-03-03T00:22:30.778Z,0
2023-03-03T00:23:36.940Z,0
2023-03-03T00:24:43.051Z,0
2023-03-03T00:25:49.190Z,0
2023-03-03T00:28:00.493Z,0
2023-03-03T00:29:06.651Z,0
2023-03-03T00:30:12.793Z,0
2023-03-03T00:31:18.927Z,0
2023-03-03T00:32:25.086Z,0
2023-03-03T00:33:31.255Z,0
2023-03-03T00:34:37.375Z,0
2023-03-03T00:35:43.551Z,0
2023-03-03T00:36:49.653Z,0
2023-03-03T00:37:55.802Z,0
2023-03-03T00:40:08.080Z,0
2023-03-03T00:41:13.238Z,0
2023-03-03T00:42:19.388Z,0
2023-03-03T00:44:31.665Z,0
2023-03-03T00:45:37.824Z,0
2023-03-03T00:46:43.956Z,0
2023-03-03T00:47:50.118Z,0
2023-03-03T00:48:56.249Z,0
2023-03-03T00:50:02.392Z,0
2023-03-03T00:51:08.540Z,0
2023-03-03T00:52:14.688Z,0
2023-03-03T00:53:20.898Z,0
2023-03-03T00:54:26.969Z,0
2023-03-03T00:55:32.141Z,0
2023-03-03T00:56:38.270Z,0
2023-03-03T00:57:44.417Z,0
2023-03-03T00:58:50.560Z,0
2023-03-03T01:01:02.911Z,0
2023-03-03T01:02:09.034Z,0
2023-03-03T01:03:15.141Z,0
2023-03-03T01:04:21.279Z,0
2023-03-03T01:05:27.421Z,0
2023-03-03T01:06:33.559Z,0
2023-03-03T01:08:44.881Z,0
2023-03-03T01:09:51.146Z,0
2023-03-03T01:10:57.305Z,0
2023-03-03T01:13:09.677Z,0
2023-03-03T01:14:15.723Z,0
2023-03-03T01:15:21.919Z,0
2023-03-03T01:17:34.148Z,0
2023-03-03T01:18:40.418Z,0
2023-03-03T01:19:46.460Z,0
2023-03-03T01:21:58.720Z,0
2023-03-03T01:23:04.871Z,0
2023-03-03T01:24:10.039Z,0
2023-03-03T01:25:16.165Z,0
2023-03-03T01:26:22.366Z,0
2023-03-03T01:27:28.462Z,0
2023-03-03T01:28:34.611Z,0
2023-03-03T01:29:40.748Z,0
2023-03-03T01:30:46.896Z,0
2023-03-03T01:31:53.029Z,0
2023-03-03T01:34:05.363Z,0
2023-03-03T01:35:11.478Z,0
2023-03-03T01:36:17.611Z,0
2023-03-03T01:37:23.755Z,0
2023-03-03T01:38:30.013Z,0
2023-03-03T01:39:36.164Z,0
2023-03-03T01:40:42.317Z,0
2023-03-03T01:41:48.469Z,0
2023-03-03T01:42:54.605Z,0
2023-03-03T01:44:00.749Z,0
2023-03-03T01:45:05.994Z,0
2023-03-03T01:46:11.069Z,0
2023-03-03T01:47:17.265Z,0
2023-03-03T01:48:23.341Z,0
2023-03-03T01:50:35.642Z,0
2023-03-03T01:51:41.824Z,0
2023-03-03T01:52:47.980Z,0
2023-03-03T01:53:54.070Z,0
2023-03-03T01:55:00.233Z,0
2023-03-03T01:56:06.359Z,0
2023-03-03T01:58:18.645Z,0
2023-03-03T01:59:23.857Z,0
2023-03-03T02:00:28.979Z,0
2023-03-03T02:01:35.117Z,0
2023-03-03T02:02:41.264Z,0
2023-03-03T02:03:47.407Z,0
2023-03-03T02:04:53.551Z,0
2023-03-03T02:07:05.845Z,0
2023-03-03T02:08:11.979Z,0
2023-03-03T02:09:18.124Z,0
2023-03-03T02:10:24.273Z,0
2023-03-03T02:11:30.508Z,0
2023-03-03T02:12:36.579Z,0
2023-03-03T02:13:42.709Z,0
2023-03-03T02:14:47.885Z,0
2023-03-03T02:15:54.013Z,0
2023-03-03T02:17:00.153Z,0
2023-03-03T02:18:06.292Z,0
2023-03-03T02:19:12.448Z,0
2023-03-03T02:20:18.593Z,0
2023-03-03T02:21:24.727Z,0
2023-03-03T02:23:37.016Z,0
2023-03-03T02:24:43.158Z,0
2023-03-03T02:25:49.310Z,0
2023-03-03T02:26:55.455Z,0
2023-03-03T02:29:07.802Z,0
2023-03-03T02:30:12.894Z,0
2023-03-03T02:31:18.074Z,0
2023-03-03T02:32:24.210Z,0
2023-03-03T02:33:30.349Z,0
2023-03-03T02:34:36.496Z,0
2023-03-03T02:35:42.664Z,0
2023-03-03T02:36:48.786Z,0
2023-03-03T02:37:54.932Z,0
2023-03-03T02:40:07.213Z,0
2023-03-03T02:43:25.648Z,0
2023-03-03T02:44:31.842Z,0
2023-03-03T02:45:36.956Z,0
2023-03-03T02:47:49.238Z,0
2023-03-03T02:48:55.403Z,0
2023-03-03T02:50:01.518Z,0
2023-03-03T02:51:07.666Z,0
2023-03-03T02:52:13.824Z,0
2023-03-03T02:53:19.986Z,0
2023-03-03T02:54:26.109Z,0
2023-03-03T02:56:38.410Z,0
2023-03-03T02:58:50.771Z,0
2023-03-03T03:01:02.014Z,0
2023-03-03T03:02:08.123Z,0
2023-03-03T03:03:14.262Z,0
2023-03-03T03:04:20.459Z,0
2023-03-03T03:05:26.557Z,0
2023-03-03T03:06:32.744Z,0
2023-03-03T03:07:38.836Z,0
2023-03-03T03:08:45.008Z,0
2023-03-03T03:09:51.127Z,0
2023-03-03T03:10:57.264Z,0
2023-03-03T03:14:15.768Z,0
2023-03-03T03:15:20.861Z,0
2023-03-03T03:16:26.998Z,0
2023-03-03T03:17:33.146Z,0
2023-03-03T03:18:39.293Z,0
2023-03-03T03:19:45.431Z,0
2023-03-03T03:20:51.604Z,0
2023-03-03T03:21:57.724Z,0
2023-03-03T03:23:03.872Z,0
2023-03-03T03:24:10.007Z,0
2023-03-03T03:25:16.163Z,0
2023-03-03T03:26:22.296Z,0
2023-03-03T03:27:28.439Z,0
2023-03-03T03:30:46.871Z,0
2023-03-03T03:31:52.035Z,0
2023-03-03T03:32:58.178Z,0
2023-03-03T03:34:04.322Z,0
2023-03-03T03:35:10.470Z,0
2023-03-03T03:36:16.624Z,0
2023-03-03T03:37:22.788Z,0
2023-03-03T03:38:28.900Z,0
2023-03-03T03:39:35.077Z,0
2023-03-03T03:40:41.180Z,0
2023-03-03T03:41:47.331Z,0
2023-03-03T03:42:53.472Z,0
2023-03-03T03:43:59.606Z,0
2023-03-03T03:46:11.963Z,0
2023-03-03T03:47:17.055Z,0
2023-03-03T03:48:23.200Z,0
2023-03-03T03:49:29.343Z,0
2023-03-03T03:50:35.489Z,0
2023-03-03T03:51:41.688Z,0
2023-03-03T03:52:47.816Z,0
2023-03-03T03:53:52.944Z,0
2023-03-03T03:54:58.103Z,0
2023-03-03T03:56:04.243Z,0
2023-03-03T03:57:10.389Z,0
2023-03-03T03:58:16.552Z,0
2023-03-03T03:59:22.677Z,0
2023-03-03T04:00:28.853Z,0
2023-03-03T04:02:41.116Z,0
2023-03-03T04:03:47.271Z,0
2023-03-03T04:04:53.407Z,0
2023-03-03T04:05:59.544Z,0
2023-03-03T04:07:05.691Z,0
2023-03-03T04:08:11.835Z,0
2023-03-03T04:09:16.999Z,0
2023-03-03T04:11:29.290Z,0
2023-03-03T04:12:34.467Z,0
2023-03-03T04:13:39.615Z,0
2023-03-03T04:14:45.761Z,0
2023-03-03T04:15:51.899Z,0
2023-03-03T04:16:58.055Z,0
2023-03-03T04:19:10.338Z,0
2023-03-03T04:20:16.518Z,0
2023-03-03T04:21:22.617Z,0
2023-03-03T04:22:28.778Z,0
2023-03-03T04:23:34.904Z,0
2023-03-03T04:24:41.058Z,0
2023-03-03T04:25:47.203Z,0
2023-03-03T04:26:53.342Z,0
2023-03-03T04:27:58.512Z,0
2023-03-03T04:29:04.640Z,0
2023-03-03T04:30:10.781Z,0
2023-03-03T04:31:16.927Z,0
2023-03-03T04:32:23.079Z,0
2023-03-03T04:33:29.238Z,0
2023-03-03T04:35:41.513Z,0
2023-03-03T04:37:53.795Z,0
2023-03-03T04:38:59.933Z,0
2023-03-03T04:40:06.078Z,0
2023-03-03T04:41:12.239Z,0
2023-03-03T04:42:17.404Z,0
2023-03-03T04:43:23.527Z,0
2023-03-03T04:44:29.672Z,0
2023-03-03T04:45:35.821Z,0
2023-03-03T04:46:41.952Z,0
2023-03-03T04:47:48.121Z,0
2023-03-03T04:48:54.251Z,0
2023-03-03T04:50:00.397Z,0
2023-03-03T04:52:12.686Z,0
2023-03-03T04:53:18.829Z,0
2023-03-03T04:54:24.971Z,0
2023-03-03T04:55:31.118Z,0
2023-03-03T04:56:36.273Z,0
2023-03-03T04:57:42.420Z,0
2023-03-03T04:58:48.560Z,0
2023-03-03T04:59:54.703Z,0
2023-03-03T05:00:59.896Z,0
2023-03-03T05:02:05.025Z,0
2023-03-03T05:03:11.180Z,0
2023-03-03T05:04:17.313Z,0
2023-03-03T05:05:23.461Z,0
2023-03-03T05:06:29.613Z,0
2023-03-03T05:08:41.892Z,0
2023-03-03T05:09:48.044Z,0
2023-03-03T05:10:54.168Z,0
2023-03-03T05:12:00.389Z,0
2023-03-03T05:13:06.463Z,0
2023-03-03T05:14:12.607Z,0
2023-03-03T05:15:18.751Z,0
2023-03-03T05:16:23.917Z,0
2023-03-03T05:17:30.076Z,0
2023-03-03T05:18:36.215Z,0
2023-03-03T05:20:48.509Z,0
2023-03-03T05:21:53.660Z,0
2023-03-03T05:22:58.829Z,0
2023-03-03T05:25:11.111Z,0
2023-03-03T05:26:17.263Z,0
2023-03-03T05:27:23.408Z,0
2023-03-03T05:28:29.548Z,0
2023-03-03T05:29:35.689Z,0
2023-03-03T05:30:41.815Z,0
2023-03-03T05:31:47.957Z,0
2023-03-03T05:32:54.128Z,0
2023-03-03T05:34:00.237Z,0
2023-03-03T05:35:06.418Z,0
2023-03-03T05:36:12.543Z,0
2023-03-03T05:37:17.701Z,0
2023-03-03T05:38:23.894Z,0
2023-03-03T05:39:29.988Z,0
2023-03-03T05:41:42.275Z,0
2023-03-03T05:42:48.459Z,0
2023-03-03T05:43:54.580Z,0
2023-03-03T05:47:12.991Z,0
2023-03-03T05:48:19.131Z,0
2023-03-03T05:49:25.285Z,0
2023-03-03T05:50:31.430Z,0
2023-03-03T05:51:36.634Z,0
2023-03-03T05:52:42.743Z,0
2023-03-03T05:53:48.878Z,0
2023-03-03T05:54:55.016Z,0
2023-03-03T05:56:01.162Z,0
2023-03-03T05:59:19.596Z,0
2023-03-03T06:00:25.735Z,0
2023-03-03T06:01:31.893Z,0
2023-03-03T06:02:38.025Z,0
2023-03-03T06:03:44.286Z,0
2023-03-03T06:05:56.446Z,0
2023-03-03T06:07:01.624Z,0
2023-03-03T06:08:07.762Z,0
2023-03-03T06:09:13.978Z,0
2023-03-03T06:10:20.051Z,0
2023-03-03T06:11:26.189Z,0
2023-03-03T06:12:31.346Z,0
2023-03-03T06:14:43.657Z,5
2023-03-03T06:15:49.812Z,5
2023-03-03T06:16:55.988Z,5
2023-03-03T06:18:02.070Z,5
2023-03-03T06:19:08.247Z,5
2023-03-03T06:20:14.363Z,5
2023-03-03T06:22:26.662Z,5
2023-03-03T06:23:32.799Z,5
2023-03-03T06:24:38.952Z,5
2023-03-03T06:25:45.077Z,5
2023-03-03T06:26:50.241Z,5
2023-03-03T06:27:56.404Z,5
2023-03-03T06:29:02.525Z,11
2023-03-03T06:31:14.814Z,11
2023-03-03T06:32:20.963Z,11
2023-03-03T06:33:27.108Z,11
2023-03-03T06:34:33.254Z,11
2023-03-03T06:35:39.388Z,11
2023-03-03T06:36:45.544Z,11
2023-03-03T06:37:51.785Z,16
2023-03-03T06:38:57.824Z,16
2023-03-03T06:40:03.970Z,16
2023-03-03T06:41:09.121Z,16
2023-03-03T06:42:15.263Z,16
2023-03-03T06:43:21.428Z,16
2023-03-03T06:44:27.605Z,16
2023-03-03T06:45:32.725Z,22
2023-03-03T06:47:44.033Z,22
2023-03-03T06:48:50.171Z,22
2023-03-03T06:49:56.347Z,22
2023-03-03T06:51:02.480Z,22
2023-03-03T06:52:08.601Z,22
2023-03-03T06:53:14.740Z,22
2023-03-03T06:54:20.884Z,28
2023-03-03T06:55:27.062Z,28
2023-03-03T06:56:33.188Z,28
2023-03-03T06:57:39.318Z,28
2023-03-03T06:58:45.485Z,28
2023-03-03T06:59:50.632Z,33
2023-03-03T07:00:55.917Z,33
2023-03-03T07:02:01.932Z,33
2023-03-03T07:04:14.244Z,33
2023-03-03T07:05:20.428Z,33
2023-03-03T07:06:26.578Z,33
2023-03-03T07:07:32.677Z,33
2023-03-03T07:08:38.816Z,39
2023-03-03T07:09:45.061Z,39
2023-03-03T07:10:51.101Z,39
2023-03-03T07:11:57.236Z,39
2023-03-03T07:13:03.392Z,39
2023-03-03T07:14:09.526Z,45
2023-03-03T07:15:14.673Z,45
2023-03-03T07:16:20.838Z,45
2023-03-03T07:17:26.973Z,50
2023-03-03T07:18:33.125Z,50
2023-03-03T07:22:57.693Z,56
2023-03-03T07:24:02.936Z,61
2023-03-03T07:25:08.034Z,67
2023-03-03T07:26:14.162Z,67
2023-03-03T07:27:20.326Z,73
2023-03-03T07:28:26.474Z,73
2023-03-03T07:31:44.882Z,67
2023-03-03T07:32:51.041Z,67
2023-03-03T07:35:03.324Z,73
2023-03-03T07:37:15.652Z,73
2023-03-03T07:38:21.815Z,78
2023-03-03T07:39:26.912Z,78
2023-03-03T07:40:32.076Z,78
2023-03-03T07:41:37.306Z,84
2023-03-03T07:42:43.417Z,90
2023-03-03T07:43:49.519Z,90
2023-03-03T07:44:55.776Z,90
2023-03-03T07:46:01.812Z,90
2023-03-03T07:47:07.961Z,84
2023-03-03T07:48:14.119Z,84
2023-03-03T07:49:20.289Z,84
2023-03-03T07:50:26.388Z,84
2023-03-03T07:53:44.919Z,90
2023-03-03T07:54:51.042Z,95
2023-03-03T07:55:56.119Z,101
2023-03-03T07:58:08.436Z,118
2023-03-03T07:59:14.557Z,118
2023-03-03T08:01:26.869Z,112
2023-03-03T08:02:33.021Z,106
2023-03-03T08:03:39.174Z,112
2023-03-03T08:04:45.386Z,123
2023-03-03T08:05:51.473Z,106
2023-03-03T08:06:57.625Z,106
2023-03-03T08:08:03.775Z,118
2023-03-03T08:10:16.130Z,112
2023-03-03T08:11:21.307Z,118
2023-03-03T08:12:27.314Z,129
2023-03-03T08:13:33.452Z,123
2023-03-03T08:14:39.674Z,129
2023-03-03T08:15:45.745Z,123
2023-03-03T08:17:58.077Z,123
2023-03-03T08:19:04.145Z,135
2023-03-03T08:21:16.424Z,129
2023-03-03T08:22:22.610Z,135
2023-03-03T08:23:28.779Z,140
2023-03-03T08:24:34.851Z,135
2023-03-03T08:26:46.310Z,140
2023-03-03T08:27:52.368Z,135
2023-03-03T08:28:58.536Z,129
2023-03-03T08:30:04.740Z,135
2023-03-03T08:31:10.894Z,146
2023-03-03T08:32:17.010Z,146
2023-03-03T08:33:23.191Z,140
2023-03-03T08:35:35.469Z,140
2023-03-03T08:36:41.628Z,135
2023-03-03T08:37:47.744Z,135
2023-03-03T08:38:53.911Z,135
2023-03-03T08:39:59.171Z,135
2023-03-03T08:41:05.302Z,140
2023-03-03T08:43:17.535Z,135
2023-03-03T08:44:23.752Z,135
2023-03-03T08:45:29.764Z,140
2023-03-03T08:46:35.959Z,140
2023-03-03T08:48:48.216Z,146
2023-03-03T08:49:54.349Z,146
2023-03-03T08:51:00.476Z,146
2023-03-03T08:52:06.631Z,151
2023-03-03T08:54:18.910Z,151
2023-03-03T08:55:25.238Z,157
2023-03-03T08:56:31.326Z,157
2023-03-03T08:57:37.463Z,157
2023-03-03T08:59:49.753Z,157
2023-03-03T09:00:55.936Z,157
2023-03-03T09:02:02.078Z,157
2023-03-03T09:03:08.436Z,157
2023-03-03T09:04:14.460Z,157
2023-03-03T09:05:20.629Z,163
2023-03-03T09:06:26.760Z,163
2023-03-03T09:07:32.788Z,163
2023-03-03T09:08:39.006Z,163
2023-03-03T09:09:45.130Z,163
2023-03-03T09:10:50.195Z,157
2023-03-03T09:11:56.335Z,157
2023-03-03T09:13:02.487Z,151
2023-03-03T09:14:08.681Z,157
2023-03-03T09:16:20.913Z,157
2023-03-03T09:17:27.066Z,157
2023-03-03T09:18:33.235Z,163
2023-03-03T09:19:39.340Z,168
2023-03-03T09:20:45.542Z,168
2023-03-03T09:21:51.725Z,174
2023-03-03T09:22:56.801Z,180
2023-03-03T09:24:02.129Z,180
2023-03-03T09:25:08.187Z,185
2023-03-03T09:26:14.248Z,196
2023-03-03T09:27:20.420Z,208
2023-03-03T09:28:26.535Z,213
2023-03-03T09:29:32.705Z,230
2023-03-03T09:30:38.863Z,247
2023-03-03T09:32:51.124Z,258
2023-03-03T09:33:57.408Z,264
2023-03-03T09:35:03.413Z,303
2023-03-03T09:36:09.574Z,320
2023-03-03T09:37:15.690Z,315
2023-03-03T09:38:20.872Z,315
2023-03-03T09:39:27.107Z,348
2023-03-03T09:40:33.126Z,365
2023-03-03T09:41:39.422Z,382
2023-03-03T09:42:45.511Z,382
2023-03-03T09:43:51.581Z,399
2023-03-03T09:44:57.710Z,354
2023-03-03T09:47:10.003Z,343
2023-03-03T09:49:22.389Z,331
2023-03-03T09:50:28.425Z,360
2023-03-03T09:51:33.708Z,360
2023-03-03T09:52:38.814Z,354
2023-03-03T09:53:44.938Z,371
2023-03-03T09:54:50.134Z,382
2023-03-03T09:55:56.210Z,376
2023-03-03T09:58:08.582Z,371
2023-03-03T09:59:14.675Z,365
2023-03-03T10:00:20.899Z,360
2023-03-03T10:01:26.972Z,365
2023-03-03T10:02:33.301Z,382
2023-03-03T10:03:39.334Z,382
2023-03-03T10:05:51.522Z,393
2023-03-03T10:06:57.703Z,399
2023-03-03T10:08:03.807Z,410
2023-03-03T10:09:09.926Z,421
2023-03-03T10:11:21.283Z,421
2023-03-03T10:12:27.379Z,427
2023-03-03T10:13:33.502Z,472
2023-03-03T10:14:39.653Z,472
2023-03-03T10:15:45.801Z,489
2023-03-03T10:16:52.006Z,534
2023-03-03T10:17:58.105Z,534
2023-03-03T10:19:04.246Z,545
2023-03-03T10:20:10.370Z,590
2023-03-03T10:22:22.693Z,691
2023-03-03T10:23:28.799Z,748
2023-03-03T10:24:34.024Z,652
2023-03-03T10:25:40.103Z,646
2023-03-03T10:26:46.260Z,652
2023-03-03T10:27:52.407Z,703
2023-03-03T10:30:04.682Z,900
2023-03-03T10:31:10.832Z,1012
2023-03-03T10:32:16.961Z,990
2023-03-03T10:33:23.195Z,1023
2023-03-03T10:34:29.272Z,826
2023-03-03T10:35:35.569Z,1091
2023-03-03T10:36:41.628Z,1265
2023-03-03T10:38:53.969Z,2143
2023-03-03T10:40:00.182Z,2818
2023-03-03T10:41:06.337Z,2351
2023-03-03T10:42:12.552Z,1209
2023-03-03T10:44:24.778Z,1035
2023-03-03T10:45:30.805Z,877
2023-03-03T10:46:36.942Z,810
2023-03-03T10:47:43.095Z,663
2023-03-03T10:48:49.261Z,540
2023-03-03T10:49:55.386Z,461
2023-03-03T10:51:01.604Z,438
2023-03-03T10:52:07.664Z,478
2023-03-03T10:53:13.805Z,483
2023-03-03T10:55:25.111Z,511
2023-03-03T10:56:31.308Z,506
2023-03-03T10:57:37.388Z,472
2023-03-03T10:59:49.690Z,511
2023-03-03T11:00:55.822Z,506
2023-03-03T11:02:01.988Z,556
2023-03-03T11:03:08.132Z,579
2023-03-03T11:04:14.379Z,579
2023-03-03T11:05:20.581Z,624
2023-03-03T11:06:26.692Z,613
2023-03-03T11:07:32.827Z,630
2023-03-03T11:08:38.960Z,703
2023-03-03T11:09:45.091Z,714
2023-03-03T11:13:03.532Z,635
2023-03-03T11:14:09.662Z,663
2023-03-03T11:15:15.800Z,826
2023-03-03T11:16:21.958Z,748
2023-03-03T11:17:28.096Z,652
2023-03-03T11:18:34.251Z,607
2023-03-03T11:20:46.514Z,523
2023-03-03T11:21:52.664Z,523
2023-03-03T11:22:57.820Z,455
2023-03-03T11:24:03.967Z,495
2023-03-03T11:25:10.112Z,585
2023-03-03T11:26:16.261Z,601
2023-03-03T11:28:28.579Z,523
2023-03-03T11:29:34.679Z,523
2023-03-03T11:30:40.832Z,585
2023-03-03T11:31:46.972Z,787
2023-03-03T11:32:53.113Z,1468
2023-03-03T11:33:59.263Z,956
2023-03-03T11:35:05.404Z,1524
2023-03-03T11:36:11.556Z,978
2023-03-03T11:37:16.707Z,1580
2023-03-03T11:38:22.866Z,1136
2023-03-03T11:39:28.994Z,1153
2023-03-03T11:40:35.155Z,1310
2023-03-03T11:41:41.369Z,2266
2023-03-03T11:42:47.452Z,1603
2023-03-03T11:46:04.879Z,1940
2023-03-03T11:47:10.036Z,2767
2023-03-03T11:48:16.191Z,849
2023-03-03T11:49:22.330Z,900
2023-03-03T11:50:28.492Z,1029
2023-03-03T11:51:34.626Z,2925
2023-03-03T11:52:40.757Z,3560
2023-03-03T11:53:46.892Z,3628
2023-03-03T11:54:53.116Z,3200
2023-03-03T11:55:59.187Z,2328
2023-03-03T11:57:05.384Z,1164
2023-03-03T11:58:11.509Z,1552
2023-03-03T11:59:17.610Z,2823
2023-03-03T12:01:29.890Z,3172
2023-03-03T12:02:35.055Z,2930
2023-03-03T12:03:41.196Z,1288
2023-03-03T12:04:47.341Z,3211
2023-03-03T12:05:53.592Z,3425
2023-03-03T12:06:59.739Z,3577
2023-03-03T12:08:05.897Z,3414
2023-03-03T12:09:11.051Z,3138
2023-03-03T12:10:16.211Z,3144
2023-03-03T12:11:22.362Z,2913
2023-03-03T12:12:28.511Z,2660
2023-03-03T12:13:34.677Z,939
2023-03-03T12:14:40.784Z,990
2023-03-03T12:15:46.924Z,1096
2023-03-03T12:17:59.214Z,1136
2023-03-03T12:19:05.360Z,1153
2023-03-03T12:20:11.500Z,1198
2023-03-03T12:21:17.642Z,1158
2023-03-03T12:22:23.790Z,1119
2023-03-03T12:23:29.929Z,1113
2023-03-03T12:25:41.335Z,1091
2023-03-03T12:26:46.399Z,1057
2023-03-03T12:28:57.701Z,1040
2023-03-03T12:30:03.852Z,1040
2023-03-03T12:31:09.993Z,1018
2023-03-03T12:32:16.143Z,973
2023-03-03T12:34:28.423Z,978
2023-03-03T12:35:34.730Z,973
2023-03-03T12:36:40.809Z,967
2023-03-03T12:37:46.882Z,967
2023-03-03T12:38:52.998Z,939
2023-03-03T12:39:59.139Z,905
2023-03-03T12:41:05.291Z,871
2023-03-03T12:42:10.480Z,871
2023-03-03T12:43:16.595Z,855
2023-03-03T12:45:28.962Z,821
2023-03-03T12:46:35.012Z,821
2023-03-03T12:47:41.204Z,821
2023-03-03T12:50:59.593Z,815
2023-03-03T12:52:05.726Z,810
2023-03-03T12:53:11.877Z,804
2023-03-03T12:55:24.161Z,793
2023-03-03T12:56:29.324Z,776
2023-03-03T12:57:35.461Z,742
2023-03-03T12:58:41.597Z,714
2023-03-03T12:59:47.749Z,697
2023-03-03T13:00:53.897Z,697
2023-03-03T13:02:00.032Z,680
2023-03-03T13:03:06.179Z,658
2023-03-03T13:05:18.460Z,646
2023-03-03T13:07:30.735Z,641
2023-03-03T13:09:43.033Z,624
2023-03-03T13:10:48.208Z,641
2023-03-03T13:11:54.337Z,652
2023-03-03T13:13:00.478Z,646
2023-03-03T13:14:06.623Z,641
2023-03-03T13:15:12.760Z,641
2023-03-03T13:16:18.905Z,646
2023-03-03T13:17:25.060Z,658
2023-03-03T13:20:43.482Z,607
2023-03-03T13:21:49.617Z,551
2023-03-03T13:25:08.125Z,534
2023-03-03T13:26:13.235Z,556
2023-03-03T13:29:31.646Z,545
2023-03-03T13:30:37.780Z,545
2023-03-03T13:31:43.926Z,540
2023-03-03T13:32:50.072Z,534
2023-03-03T13:33:56.222Z,540
2023-03-03T13:35:02.351Z,534
2023-03-03T13:36:07.516Z,528
2023-03-03T13:37:13.667Z,523
2023-03-03T13:38:19.801Z,511
2023-03-03T13:40:32.095Z,506
2023-03-03T13:41:38.321Z,506
2023-03-03T13:42:44.552Z,500
2023-03-03T13:43:50.687Z,506
2023-03-03T13:44:56.821Z,523
2023-03-03T13:46:02.974Z,511
2023-03-03T13:47:08.976Z,483
2023-03-03T13:48:15.093Z,466
2023-03-03T13:49:21.234Z,450
2023-03-03T13:50:26.398Z,455
2023-03-03T13:51:32.536Z,444
2023-03-03T13:52:37.715Z,427
2023-03-03T13:53:42.876Z,438
2023-03-03T13:54:49.020Z,421
2023-03-03T13:57:01.291Z,444
2023-03-03T13:58:07.466Z,455
2023-03-03T13:59:13.589Z,455
2023-03-03T14:00:19.763Z,444
2023-03-03T14:01:25.870Z,438
2023-03-03T14:02:32.173Z,416
2023-03-03T14:03:38.162Z,399
2023-03-03T14:06:56.585Z,399
2023-03-03T14:08:01.847Z,399
2023-03-03T14:09:06.933Z,399
2023-03-03T14:10:13.050Z,393
2023-03-03T14:11:19.219Z,388
2023-03-03T14:13:31.486Z,399
2023-03-03T14:14:37.633Z,399
2023-03-03T14:15:43.787Z,399
2023-03-03T14:16:49.920Z,382
2023-03-03T14:17:56.063Z,354
2023-03-03T14:19:02.216Z,360
2023-03-03T14:20:08.340Z,354
2023-03-03T14:21:14.519Z,331
2023-03-03T14:23:26.781Z,315
2023-03-03T14:24:31.948Z,298
2023-03-03T14:25:38.084Z,303
2023-03-03T14:26:44.227Z,309
2023-03-03T14:27:50.371Z,298
2023-03-03T14:30:02.663Z,292
2023-03-03T14:31:08.805Z,292
2023-03-03T14:32:14.944Z,281
2023-03-03T14:33:21.090Z,264
2023-03-03T14:34:27.240Z,264
2023-03-03T14:35:33.367Z,270
2023-03-03T14:36:39.520Z,270
2023-03-03T14:37:45.672Z,275
2023-03-03T14:38:51.931Z,281
2023-03-03T14:39:58.077Z,275
2023-03-03T14:41:04.217Z,275
2023-03-03T14:42:10.350Z,264
2023-03-03T14:44:22.648Z,286
2023-03-03T14:46:34.979Z,292
2023-03-03T14:47:41.221Z,309
2023-03-03T14:48:47.228Z,320
2023-03-03T14:49:53.435Z,315
2023-03-03T14:50:59.503Z,309
2023-03-03T14:52:05.649Z,309
2023-03-03T14:53:11.005Z,315
2023-03-03T14:54:16.945Z,320
2023-03-03T14:55:23.142Z,315
2023-03-03T14:56:29.393Z,315
2023-03-03T14:57:35.378Z,315
2023-03-03T14:58:41.527Z,309
2023-03-03T14:59:47.668Z,309
2023-03-03T15:00:53.892Z,309
2023-03-03T15:03:06.094Z,298
2023-03-03T15:04:12.247Z,281
2023-03-03T15:05:18.393Z,275
2023-03-03T15:06:24.529Z,264
2023-03-03T15:08:35.960Z,253
2023-03-03T15:09:42.036Z,247
2023-03-03T15:11:54.258Z,241
2023-03-03T15:13:00.409Z,225
2023-03-03T15:14:06.549Z,202
2023-03-03T15:15:12.708Z,202
2023-03-03T15:17:24.990Z,208
2023-03-03T15:19:37.260Z,191
2023-03-03T15:20:43.418Z,180
2023-03-03T15:21:48.564Z,180
2023-03-03T15:24:00.849Z,168
2023-03-03T15:25:06.996Z,163
2023-03-03T15:26:13.138Z,163
2023-03-03T15:28:25.420Z,140
2023-03-03T15:29:31.559Z,140
2023-03-03T15:31:43.849Z,129
2023-03-03T15:32:49.988Z,123
2023-03-03T15:33:56.133Z,118
2023-03-03T15:37:14.568Z,112
2023-03-03T15:38:19.719Z,112
2023-03-03T15:39:26.046Z,101
2023-03-03T15:40:32.255Z,101
2023-03-03T15:41:38.145Z,106
2023-03-03T15:42:44.297Z,112
2023-03-03T15:43:50.434Z,112
2023-03-03T15:44:56.573Z,118
2023-03-03T15:46:02.794Z,118
2023-03-03T15:47:08.869Z,118
2023-03-03T15:48:15.024Z,118
2023-03-03T15:49:21.162Z,118
2023-03-03T15:52:39.581Z,118
2023-03-03T15:53:44.745Z,118
2023-03-03T15:54:50.885Z,118
2023-03-03T15:55:57.028Z,118
2023-03-03T15:57:03.167Z,118
2023-03-03T15:58:09.314Z,112
2023-03-03T15:59:15.463Z,112
2023-03-03T16:01:27.736Z,106
2023-03-03T16:02:33.893Z,106
2023-03-03T16:03:40.031Z,106
2023-03-03T16:04:46.176Z,106
2023-03-03T16:05:52.318Z,101
2023-03-03T16:09:10.745Z,95
2023-03-03T16:10:15.920Z,95
2023-03-03T16:11:22.055Z,95
2023-03-03T16:12:28.258Z,90
2023-03-03T16:14:40.512Z,90
2023-03-03T16:15:46.655Z,90
2023-03-03T16:16:52.773Z,90
2023-03-03T16:17:58.921Z,90
2023-03-03T16:19:05.054Z,90
2023-03-03T16:20:11.179Z,90
2023-03-03T16:21:17.340Z,84
2023-03-03T16:23:29.673Z,78
2023-03-03T16:25:40.919Z,67
2023-03-03T16:26:47.056Z,61
2023-03-03T16:27:53.209Z,61
2023-03-03T16:30:05.513Z,56
2023-03-03T16:31:11.642Z,56
2023-03-03T16:32:17.794Z,50
2023-03-03T16:33:23.928Z,50
2023-03-03T16:34:30.101Z,50
2023-03-03T16:35:36.209Z,50
2023-03-03T16:36:42.374Z,50
2023-03-03T16:37:48.515Z,50
2023-03-03T16:38:53.661Z,50
2023-03-03T16:39:59.807Z,45
2023-03-03T16:42:12.084Z,45
2023-03-03T16:43:18.235Z,45
2023-03-03T16:45:30.514Z,39
2023-03-03T16:46:36.687Z,39
2023-03-03T16:47:42.939Z,33
2023-03-03T16:48:48.945Z,33
2023-03-03T16:49:55.127Z,28
2023-03-03T16:51:01.258Z,28
2023-03-03T16:52:07.394Z,28
2023-03-03T16:53:12.549Z,28
2023-03-03T16:54:18.682Z,22
2023-03-03T16:55:24.831Z,22
2023-03-03T16:56:30.975Z,22
2023-03-03T16:58:43.260Z,16
2023-03-03T16:59:49.413Z,11
2023-03-03T17:00:55.543Z,11
2023-03-03T17:02:01.704Z,11
2023-03-03T17:03:07.830Z,11
2023-03-03T17:04:13.973Z,11
2023-03-03T17:05:20.208Z,5
2023-03-03T17:06:26.262Z,5
2023-03-03T17:07:31.415Z,5
2023-03-03T17:08:36.580Z,5
2023-03-03T17:09:41.800Z,5
2023-03-03T17:10:47.894Z,5
2023-03-03T17:11:54.091Z,0
2023-03-03T17:13:00.181Z,0
2023-03-03T17:15:12.477Z,0
2023-03-03T17:16:18.614Z,0
2023-03-03T17:17:24.755Z,0
2023-03-03T17:19:37.044Z,0
2023-03-03T17:20:42.207Z,0
2023-03-03T17:21:48.396Z,0
2023-03-03T17:22:53.513Z,0
2023-03-03T17:23:58.676Z,0
2023-03-03T17:25:04.834Z,0
2023-03-03T17:26:10.972Z,0
2023-03-03T17:27:17.108Z,0
2023-03-03T17:29:29.394Z,0
2023-03-03T17:31:41.674Z,0
2023-03-03T17:32:47.822Z,0
2023-03-03T17:33:53.981Z,0
2023-03-03T17:35:00.111Z,0
2023-03-03T17:36:06.262Z,0
2023-03-03T17:37:12.426Z,0
2023-03-03T17:38:18.664Z,0
2023-03-03T17:39:24.810Z,0
2023-03-03T17:40:30.979Z,0
2023-03-03T17:42:43.291Z,0
2023-03-03T17:43:49.449Z,0
2023-03-03T17:44:55.538Z,0
2023-03-03T17:46:01.677Z,0
2023-03-03T17:48:13.962Z,0
2023-03-03T17:49:20.096Z,0
2023-03-03T17:50:26.242Z,0
2023-03-03T17:51:32.394Z,0
2023-03-03T17:52:37.607Z,0
2023-03-03T17:53:43.752Z,0
2023-03-03T17:54:49.838Z,0
2023-03-03T17:55:55.987Z,0
2023-03-03T17:57:02.126Z,0
2023-03-03T17:58:08.294Z,0
2023-03-03T17:59:14.412Z,0
2023-03-03T18:00:20.595Z,0
2023-03-03T18:01:26.699Z,0
2023-03-03T18:02:32.901Z,0
2023-03-03T18:04:45.180Z,0
2023-03-03T18:05:51.359Z,0
2023-03-03T18:06:56.560Z,0
2023-03-03T18:08:02.730Z,0
2023-03-03T18:09:08.951Z,0
2023-03-03T18:10:14.866Z,0
2023-03-03T18:11:20.375Z,0
2023-03-03T18:12:25.213Z,0
2023-03-03T18:13:31.339Z,0
2023-03-03T18:14:37.571Z,0
2023-03-03T18:15:43.740Z,0
2023-03-03T18:16:49.835Z,0
2023-03-03T18:17:55.908Z,0